^^
Saratoga-Weather Station Historical Data
Daily Summary for February 11, 2021 Units:  English    Metric   Both
Daily Weekly Monthly Yearly Custom
  High: Low: Average:
Temperature: 5.2 °F °F 2.7 °F
Dew Point: 3.6 °F °F 1.7 °F
Humidity: 96% % 69%
Wind Speed: 14.3mph mph 2.6mph
Wind Gust: 17.7mph - -
Wind- - WSW
Pressure: 1024.4 in 0.0 in -
Precipitation: 0.0 in    
Historical Graphs
 
 
Tabular Data for February 11, 2021
Time Temperature Dew Point Pressure Wind Wind Speed Wind Gust Humidity Rainfall Rate (Hourly) solar
00:04 °F °F 0.0 in Calm     % 0.0 in W/m2
00:27 °F °F 0.0 in Calm     % 0.0 in W/m2
00:49 °F °F 0.0 in Calm     % 0.0 in W/m2
00:59 °F °F 0.0 in Calm     % 0.0 in W/m2
01:10 °F °F 0.0 in Calm     % 0.0 in W/m2
01:20 °F °F 0.0 in Calm     % 0.0 in W/m2
01:39 °F °F 0.0 in Calm     % 0.0 in W/m2
01:49 °F °F 0.0 in Calm     % 0.0 in W/m2
01:59 °F °F 0.0 in Calm     % 0.0 in W/m2
02:10 °F °F 0.0 in Calm     % 0.0 in W/m2
02:21 °F °F 0.0 in Calm     % 0.0 in W/m2
02:31 °F °F 0.0 in Calm     % 0.0 in W/m2
02:42 °F °F 0.0 in Calm     % 0.0 in W/m2
02:52 °F °F 0.0 in Calm     % 0.0 in W/m2
03:03 °F °F 0.0 in Calm     % 0.0 in W/m2
03:13 °F °F 0.0 in Calm     % 0.0 in W/m2
03:24 °F °F 0.0 in Calm     % 0.0 in W/m2
03:34 °F °F 0.0 in Calm     % 0.0 in W/m2
03:45 °F °F 0.0 in Calm     % 0.0 in W/m2
03:55 °F °F 0.0 in Calm     % 0.0 in W/m2
04:06 °F °F 0.0 in Calm     % 0.0 in W/m2
04:16 °F °F 0.0 in Calm     % 0.0 in W/m2
04:27 °F °F 0.0 in Calm     % 0.0 in W/m2
04:38 °F °F 0.0 in Calm     % 0.0 in W/m2
04:48 °F °F 0.0 in Calm     % 0.0 in W/m2
04:59 °F °F 0.0 in Calm     % 0.0 in W/m2
05:09 °F °F 0.0 in Calm     % 0.0 in W/m2
05:20 °F °F 0.0 in Calm     % 0.0 in W/m2
05:30 °F °F 0.0 in Calm     % 0.0 in W/m2
05:41 °F °F 0.0 in Calm     % 0.0 in W/m2
05:52 °F °F 0.0 in Calm     % 0.0 in W/m2
06:03 °F °F 0.0 in Calm     % 0.0 in W/m2
06:13 °F °F 0.0 in Calm     % 0.0 in W/m2
06:23 °F °F 0.0 in Calm     % 0.0 in W/m2
06:34 °F °F 0.0 in Calm     % 0.0 in W/m2
06:44 °F °F 0.0 in Calm     % 0.0 in W/m2
06:55 °F °F 0.0 in Calm     % 0.0 in W/m2
07:05 °F °F 0.0 in Calm     % 0.0 in W/m2
07:16 °F °F 0.0 in Calm     % 0.0 in W/m2
07:27 °F °F 0.0 in Calm     % 0.0 in W/m2
07:37 °F °F 0.0 in Calm     % 0.0 in W/m2
07:48 °F °F 0.0 in Calm     % 0.0 in W/m2
07:58 °F °F 0.0 in Calm     % 0.0 in W/m2
08:09 °F °F 0.0 in Calm     % 0.0 in W/m2
08:19 °F °F 0.0 in Calm     % 0.0 in W/m2
08:30 °F °F 0.0 in Calm     % 0.0 in W/m2
08:40 °F °F 0.0 in Calm     % 0.0 in W/m2
08:51 °F °F 0.0 in Calm     % 0.0 in W/m2
09:02 °F °F 0.0 in Calm     % 0.0 in W/m2
09:21 °F °F 0.0 in Calm     % 0.0 in W/m2
09:31 °F °F 0.0 in Calm     % 0.0 in W/m2
09:47 °F °F 0.0 in Calm     % 0.0 in W/m2
09:58 2.6 °F 1.9 °F 1015.6 in Calm     95% 0.0 in 14 W/m2
10:04 2.7 °F 2 °F 1015.6 in Calm   1.6 mph 95% 0.0 in 18 W/m2
10:09 2.7 °F 2 °F 1015.6 in Calm   1.6 mph 95% 0.0 in 16 W/m2
10:14 2.7 °F 2 °F 1015.9 in WNW 3.2 mph 4.8 mph 95% 0.0 in 32 W/m2
10:19 2.8 °F 2.2 °F 1015.9 in WNW 1.4 mph 4.8 mph 96% 0.0 in 35 W/m2
10:24 2.9 °F 2.3 °F 1015.9 in West 4.7 mph 8 mph 96% 0.0 in 46 W/m2
10:29 3 °F 2.3 °F 1016.3 in WNW 3.2 mph 6.4 mph 95% 0.0 in 63 W/m2
10:34 3.1 °F 2.4 °F 1016.3 in WNW 3.2 mph 6.4 mph 95% 0.0 in 51 W/m2
10:39 3.2 °F 2.6 °F 1016.3 in WNW 4.7 mph 9.7 mph 96% 0.0 in 72 W/m2
10:44 3.3 °F 2.6 °F 1016.3 in WNW 11.1 mph 12.9 mph 95% 0.0 in 65 W/m2
10:49 3.4 °F 2.8 °F 1016.3 in WSW 14.3 mph 17.7 mph 96% 0.0 in 84 W/m2
10:54 3.6 °F 2.9 °F 1016.3 in West 4.7 mph 12.9 mph 95% 0.0 in 123 W/m2
10:59 3.8 °F 3.1 °F 1016.6 in NW 6.4 mph 17.7 mph 95% 0.0 in 70 W/m2
11:04 3.9 °F 3.2 °F 1016.6 in West 3.2 mph 11.3 mph 95% 0.0 in 72 W/m2
11:09 3.9 °F 3 °F 1016.6 in West 4.7 mph 11.3 mph 94% 0.0 in 62 W/m2
11:14 4 °F 3.1 °F 1016.9 in West 6.4 mph 11.3 mph 94% 0.0 in 86 W/m2
11:19 4.1 °F 3.2 °F 1016.9 in NW 4.7 mph 9.7 mph 94% 0.0 in 81 W/m2
11:24 4.1 °F 3.2 °F 1016.9 in WSW 11.1 mph 14.5 mph 94% 0.0 in 77 W/m2
11:29 4.2 °F 3.3 °F 1016.9 in West 4.7 mph 11.3 mph 94% 0.0 in 83 W/m2
11:34 4.2 °F 3.3 °F 1016.9 in West 11.1 mph 14.5 mph 94% 0.0 in 86 W/m2
11:39 4.3 °F 3.3 °F 1016.9 in West 6.4 mph 11.3 mph 93% 0.0 in 77 W/m2
11:44 4.3 °F 3.3 °F 1016.9 in West 6.4 mph 6.4 mph 93% 0.0 in 116 W/m2
11:49 4.4 °F 3.4 °F 1016.9 in West 6.4 mph 12.9 mph 93% 0.0 in 148 W/m2
11:54 4.5 °F 3.5 °F 1016.9 in NW 4.7 mph 14.5 mph 93% 0.0 in 97 W/m2
11:59 4.6 °F 3.6 °F 1016.9 in WNW 3.2 mph 6.4 mph 93% 0.0 in 72 W/m2
12:04 4.6 °F 3.6 °F 1016.9 in WNW 7.9 mph 11.3 mph 93% 0.0 in 77 W/m2
12:09 4.6 °F 3.4 °F 1016.9 in West 13 mph 17.7 mph 92% 0.0 in 98 W/m2
12:14 4.7 °F 3.5 °F 1017.3 in WNW 6.4 mph 12.9 mph 92% 0.0 in 76 W/m2
12:19 4.7 °F 3.5 °F 1017.3 in West 1.4 mph 14.5 mph 92% 0.0 in 88 W/m2
12:24 4.7 °F 3.5 °F 1017.3 in WNW 13 mph 12.9 mph 92% 0.0 in 60 W/m2
12:29 4.7 °F 3.5 °F 1017.6 in WNW 11.1 mph 14.5 mph 92% 0.0 in 81 W/m2
12:34 4.8 °F 3.5 °F 1017.6 in West 9.7 mph 16.1 mph 91% 0.0 in 98 W/m2
12:39 4.8 °F 3.5 °F 1017.6 in West 9.7 mph 14.5 mph 91% 0.0 in 97 W/m2
12:44 4.9 °F 3.4 °F 1017.6 in WSW 6.4 mph 14.5 mph 90% 0.0 in 95 W/m2
12:49 4.9 °F 3.4 °F 1017.6 in WNW 4.7 mph 12.9 mph 90% 0.0 in 90 W/m2
12:54 5 °F 3.3 °F 1018.0 in NW 9.7 mph 17.7 mph 89% 0.0 in 84 W/m2
12:59 5 °F 3.3 °F 1018.0 in West 3.2 mph 6.4 mph 89% 0.0 in 93 W/m2
13:04 5 °F 3.2 °F 1018.0 in WNW 7.9 mph 17.7 mph 88% 0.0 in 69 W/m2
13:09 5 °F 3.2 °F 1018.0 in West 4.7 mph 12.9 mph 88% 0.0 in 44 W/m2
13:14 5 °F 3.2 °F 1018.0 in West 3.2 mph 11.3 mph 88% 0.0 in 53 W/m2
13:19 5 °F 3.2 °F 1018.0 in West 6.4 mph 12.9 mph 88% 0.0 in 63 W/m2
13:24 5 °F 3.2 °F 1018.0 in West 4.7 mph 6.4 mph 88% 0.0 in 113 W/m2
13:29 5.1 °F 3.4 °F 1018.3 in West 4.7 mph 11.3 mph 89% 0.0 in 114 W/m2
13:34 5.2 °F 3.5 °F 1018.3 in WNW 4.7 mph 6.4 mph 89% 0.0 in 67 W/m2
13:39 5.2 °F 3.4 °F 1018.3 in WNW 4.7 mph 9.7 mph 88% 0.0 in 47 W/m2
13:44 5.2 °F 3.4 °F 1018.0 in West 4.7 mph 12.9 mph 88% 0.0 in 56 W/m2
13:49 5.1 °F 3.3 °F 1018.3 in WSW 6.4 mph 9.7 mph 88% 0.0 in 35 W/m2
13:54 5.1 °F 3.3 °F 1018.3 in West 6.4 mph 9.7 mph 88% 0.0 in 32 W/m2
13:59 5 °F 3.3 °F 1018.3 in West 6.4 mph 9.7 mph 89% 0.0 in 44 W/m2
14:04 5 °F 3.5 °F 1018.3 in West 4.7 mph 9.7 mph 90% 0.0 in 86 W/m2
14:09 5.1 °F 3.6 °F 1018.3 in WNW 4.7 mph 9.7 mph 90% 0.0 in 49 W/m2
14:14 5.1 °F 3.4 °F 1018.6 in WNW 1.4 mph 12.9 mph 89% 0.0 in 35 W/m2
14:19 5.1 °F 3.3 °F 1018.6 in SW 4.7 mph 9.7 mph 88% 0.0 in 49 W/m2
14:24 5.1 °F 3.3 °F 1018.6 in West 3.2 mph 6.4 mph 88% 0.0 in 39 W/m2
14:29 5.1 °F 3.3 °F 1018.6 in West 6.4 mph 11.3 mph 88% 0.0 in 47 W/m2
14:34 5 °F 3.3 °F 1019.0 in WNW 4.7 mph 14.5 mph 89% 0.0 in 51 W/m2
14:39 4.9 °F 3.2 °F 1019.0 in WSW 3.2 mph 8 mph 89% 0.0 in 56 W/m2
14:44 4.9 °F 3.2 °F 1019.0 in WNW 4.7 mph 14.5 mph 89% 0.0 in 65 W/m2
14:49 4.9 °F 3.4 °F 1019.0 in WNW 13 mph 12.9 mph 90% 0.0 in 65 W/m2
14:54 4.9 °F 3.2 °F 1019.3 in South 7.9 mph 14.5 mph 89% 0.0 in 53 W/m2
14:59 4.9 °F 3.2 °F 1019.3 in WNW 9.7 mph 12.9 mph 89% 0.0 in 47 W/m2
15:05 4.8 °F 3.1 °F 1019.3 in WSW 3.2 mph 14.5 mph 89% 0.0 in 37 W/m2
15:10 4.8 °F 3.1 °F 1019.3 in WSW 6.4 mph 14.5 mph 89% 0.0 in 25 W/m2
15:15 4.7 °F 3 °F 1019.6 in West 9.7 mph 12.9 mph 89% 0.0 in 21 W/m2
15:20 4.6 °F 3.1 °F 1019.6 in NW 6.4 mph 9.7 mph 90% 0.0 in 21 W/m2
15:25 4.4 °F 2.7 °F 1019.6 in West 4.7 mph 11.3 mph 89% 0.0 in 23 W/m2
15:30 4.3 °F 2.6 °F 1019.6 in West 4.7 mph 14.5 mph 89% 0.0 in 25 W/m2
15:35 4.2 °F 2.7 °F 1019.6 in WSW 11.1 mph 14.5 mph 90% 0.0 in 25 W/m2
15:40 4.1 °F 2.6 °F 1019.6 in WNW 4.7 mph 11.3 mph 90% 0.0 in 25 W/m2
15:45 3.9 °F 2.4 °F 1019.6 in West 9.7 mph 12.9 mph 90% 0.0 in 26 W/m2
15:50 3.8 °F 2.3 °F 1020.0 in WNW 3.2 mph 9.7 mph 90% 0.0 in 32 W/m2
15:55 3.7 °F 2.2 °F 1020.0 in West 1.4 mph 9.7 mph 90% 0.0 in 25 W/m2
16:00 3.7 °F 2.2 °F 1020.0 in WNW 6.4 mph 6.4 mph 90% 0.0 in 16 W/m2
16:05 3.6 °F 2.1 °F 1020.0 in West 6.4 mph 9.7 mph 90% 0.0 in 12 W/m2
16:10 3.4 °F 2.1 °F 1020.3 in West 3.2 mph 4.8 mph 91% 0.0 in 11 W/m2
16:15 3.3 °F 1.8 °F 1020.3 in SW 9.7 mph 9.7 mph 90% 0.0 in 11 W/m2
16:20 3.2 °F 1.9 °F 1020.3 in WNW 1.4 mph 6.4 mph 91% 0.0 in 7 W/m2
16:25 3.1 °F 1.8 °F 1020.7 in West 4.7 mph 4.8 mph 91% 0.0 in 5 W/m2
16:30 3.1 °F 1.8 °F 1020.7 in Calm   4.8 mph 91% 0.0 in 5 W/m2
16:35 2.9 °F 1.6 °F 1020.7 in West 4.7 mph 6.4 mph 91% 0.0 in 0 W/m2
16:40 2.9 °F 1.6 °F 1020.7 in SW 4.7 mph 9.7 mph 91% 0.0 in 0 W/m2
16:45 2.9 °F 1.6 °F 1020.7 in West 4.7 mph 8 mph 91% 0.0 in 0 W/m2
16:50 2.9 °F 1.6 °F 1021.0 in West 4.7 mph 12.9 mph 91% 0.0 in 0 W/m2
16:55 2.9 °F 1.6 °F 1021.0 in West 1.4 mph 8 mph 91% 0.0 in 0 W/m2
17:00 2.9 °F 1.6 °F 1021.0 in West 1.4 mph 12.9 mph 91% 0.0 in 0 W/m2
17:05 2.9 °F 1.6 °F 1021.0 in West 3.2 mph 4.8 mph 91% 0.0 in 0 W/m2
17:10 2.8 °F 1.5 °F 1021.3 in West 3.2 mph 11.3 mph 91% 0.0 in 0 W/m2
17:15 2.7 °F 1.4 °F 1021.3 in West 1.4 mph 6.4 mph 91% 0.0 in 0 W/m2
17:20 2.7 °F 1.4 °F 1021.3 in WSW 1.4 mph 11.3 mph 91% 0.0 in 0 W/m2
17:25 2.6 °F 1.3 °F 1021.3 in WNW 3.2 mph 4.8 mph 91% 0.0 in 0 W/m2
17:30 2.5 °F 1.2 °F 1021.3 in WSW 4.7 mph 6.4 mph 91% 0.0 in 0 W/m2
17:35 2.4 °F 1.1 °F 1021.7 in WSW 3.2 mph 6.4 mph 91% 0.0 in 0 W/m2
17:40 2.4 °F 1.1 °F 1021.7 in WSW 1.4 mph 8 mph 91% 0.0 in 0 W/m2
17:45 2.4 °F 1.1 °F 1021.7 in SW 3.2 mph 6.4 mph 91% 0.0 in 0 W/m2
17:50 2.4 °F 1.1 °F 1022.0 in WSW 3.2 mph 8 mph 91% 0.0 in 0 W/m2
17:55 2.4 °F 1.1 °F 1022.0 in West 4.7 mph 9.7 mph 91% 0.0 in 0 W/m2
18:00 2.4 °F 1.1 °F 1022.0 in West 1.4 mph 4.8 mph 91% 0.0 in 0 W/m2
18:05 2.3 °F 1 °F 1022.0 in WSW 6.4 mph 8 mph 91% 0.0 in 0 W/m2
18:10 2.3 °F 1 °F 1022.0 in Calm   3.2 mph 91% 0.0 in 0 W/m2
18:15 2.3 °F 1 °F 1022.0 in WSW 3.2 mph 4.8 mph 91% 0.0 in 0 W/m2
18:20 2.2 °F 0.9 °F 1022.4 in SW 4.7 mph 8 mph 91% 0.0 in 0 W/m2
18:25 2.2 °F 1 °F 1022.4 in WSW 3.2 mph 3.2 mph 92% 0.0 in 0 W/m2
18:41 2.4 °F 1.2 °F 1022.4 in WSW 1.4 mph 3.2 mph 92% 0.0 in 0 W/m2
18:46 2.5 °F 1.3 °F 1022.4 in Calm   1.6 mph 92% 0.0 in 0 W/m2
18:51 2.5 °F 1.3 °F 1022.7 in Calm     92% 0.0 in 0 W/m2
18:56 2.5 °F 1.3 °F 1022.7 in Calm     92% 0.0 in 0 W/m2
19:01 2.4 °F 1.4 °F 1022.7 in SE 1.4 mph 3.2 mph 93% 0.0 in 0 W/m2
19:06 2.5 °F 1.5 °F 1022.7 in SE 1.4 mph 3.2 mph 93% 0.0 in 0 W/m2
19:11 2.4 °F 1.4 °F 1022.7 in Calm   1.6 mph 93% 0.0 in 0 W/m2
19:16 2.5 °F 1.5 °F 1022.7 in Calm   3.2 mph 93% 0.0 in 0 W/m2
19:21 2.6 °F 1.6 °F 1022.7 in Calm     93% 0.0 in 0 W/m2
19:26 2.6 °F 1.6 °F 1022.7 in Calm   3.2 mph 93% 0.0 in 0 W/m2
19:31 2.6 °F 1.6 °F 1022.7 in Calm     93% 0.0 in 0 W/m2
19:36 2.6 °F 1.6 °F 1023.0 in Calm     93% 0.0 in 0 W/m2
19:41 2.6 °F 1.6 °F 1023.0 in Calm   1.6 mph 93% 0.0 in 0 W/m2
19:46 2.6 °F 1.6 °F 1023.0 in Calm     93% 0.0 in 0 W/m2
19:51 2.6 °F 1.6 °F 1022.7 in Calm     93% 0.0 in 0 W/m2
19:56 2.6 °F 1.6 °F 1023.0 in Calm     93% 0.0 in 0 W/m2
20:01 2.6 °F 1.7 °F 1023.0 in Calm     94% 0.0 in 0 W/m2
20:06 2.6 °F 1.7 °F 1023.0 in Calm     94% 0.0 in 0 W/m2
20:11 2.6 °F 1.7 °F 1023.0 in Calm     94% 0.0 in 0 W/m2
20:16 2.7 °F 1.8 °F 1023.0 in Calm     94% 0.0 in 0 W/m2
20:21 2.8 °F 1.9 °F 1023.0 in East 1.4 mph 6.4 mph 94% 0.0 in 0 W/m2
20:26 2.9 °F 1.9 °F 1023.4 in Calm   3.2 mph 93% 0.0 in 0 W/m2
20:32 3 °F 2 °F 1023.4 in Calm   3.2 mph 93% 0.0 in 0 W/m2
20:37 3.1 °F 1.9 °F 1023.4 in West 1.4 mph 4.8 mph 92% 0.0 in 0 W/m2
20:42 3.2 °F 2 °F 1023.4 in Calm     92% 0.0 in 0 W/m2
20:47 3.2 °F 2 °F 1023.4 in East 3.2 mph 4.8 mph 92% 0.0 in 0 W/m2
20:52 3.2 °F 2 °F 1023.4 in ESE 1.4 mph 6.4 mph 92% 0.0 in 0 W/m2
20:57 3.3 °F 2 °F 1023.4 in East 3.2 mph 4.8 mph 91% 0.0 in 0 W/m2
21:02 3.3 °F 2 °F 1023.4 in Calm   6.4 mph 91% 0.0 in 0 W/m2
21:07 3.3 °F 2 °F 1023.4 in Calm   3.2 mph 91% 0.0 in 0 W/m2
21:12 3.3 °F 2 °F 1023.7 in Calm   4.8 mph 91% 0.0 in 0 W/m2
21:17 3.4 °F 2.1 °F 1023.7 in WNW 3.2 mph 4.8 mph 91% 0.0 in 0 W/m2
21:22 3.4 °F 2.1 °F 1023.7 in Calm   4.8 mph 91% 0.0 in 0 W/m2
21:27 3.5 °F 2.2 °F 1023.7 in Calm   3.2 mph 91% 0.0 in 0 W/m2
21:32 3.4 °F 2.1 °F 1023.7 in West 1.4 mph 3.2 mph 91% 0.0 in 0 W/m2
21:49 3.4 °F 2.1 °F 1023.7 in Calm     91% 0.0 in 0 W/m2
21:54 3.4 °F 2.1 °F 1023.7 in East 1.4 mph 4.8 mph 91% 0.0 in 0 W/m2
21:59 3.4 °F 2.1 °F 1023.7 in Calm     91% 0.0 in 0 W/m2
22:04 3.4 °F 2.1 °F 1023.7 in ESE 4.7 mph 4.8 mph 91% 0.0 in 0 W/m2
22:09 3.4 °F 2.1 °F 1023.7 in Calm   4.8 mph 91% 0.0 in 0 W/m2
22:26 3.4 °F 2.1 °F 1024.0 in Calm   1.6 mph 91% 0.0 in 0 W/m2
22:31 3.3 °F 2.1 °F 1024.0 in NE 1.4 mph 3.2 mph 92% 0.0 in 0 W/m2
22:36 3.3 °F 2 °F 1024.0 in Calm     91% 0.0 in 0 W/m2
22:42 3.2 °F 2 °F 1024.0 in Calm     92% 0.0 in 0 W/m2
22:47 3.1 °F 1.9 °F 1024.0 in Calm     92% 0.0 in 0 W/m2
22:52 3.1 °F 1.9 °F 1024.4 in Calm     92% 0.0 in 0 W/m2
22:57 3 °F 2 °F 1024.4 in Calm     93% 0.0 in 0 W/m2
23:02 3 °F 2 °F 1024.4 in Calm     93% 0.0 in 0 W/m2
23:07 3 °F 2 °F 1024.4 in Calm   1.6 mph 93% 0.0 in 0 W/m2
23:12 2.9 °F 1.9 °F 1024.4 in Calm   1.6 mph 93% 0.0 in 0 W/m2
23:17 2.9 °F 1.9 °F 1024.4 in ENE 1.4 mph 3.2 mph 93% 0.0 in 0 W/m2
23:22 2.9 °F 1.9 °F 1024.4 in Calm     93% 0.0 in 0 W/m2
23:27 2.9 °F 1.9 °F 1024.4 in Calm   1.6 mph 93% 0.0 in 0 W/m2
23:32 2.9 °F 1.9 °F 1024.4 in ENE 1.4 mph 1.6 mph 93% 0.0 in 0 W/m2
23:37 2.8 °F 1.8 °F 1024.4 in Calm   1.6 mph 93% 0.0 in 0 W/m2
23:42 2.8 °F 1.8 °F 1024.4 in Calm   1.6 mph 93% 0.0 in 0 W/m2
23:47 2.8 °F 1.9 °F 1024.4 in Calm     94% 0.0 in 0 W/m2
23:52 2.8 °F 1.8 °F 1024.4 in Calm     93% 0.0 in 0 W/m2
23:57 2.7 °F 1.7 °F 1024.4 in Calm     93% 0.0 in 0 W/m2
Juneau County Weather
Compliments of Weather Underground - 2 mb